Time;durP1;ratioP1;P1;durP2;ratioP2;P2;SDS_P1;SDS_P2;PMS_P1;PMS_P2;Temp;Humidity;BMP_temperature;BMP_pressure;BME280_temperature;BME280_humidity;BME280_pressure;Samples;Min_cycle;Max_cycle;Signal;HPM_P1;HPM_P2
2022/03/25 00:02:04;;;;;;;383.80;66.50;;;7.00;99.90;;;;;;5145098;27;20077;-66
2022/03/25 00:04:30;;;;;;;419.25;70.30;;;6.80;99.90;;;;;;5145503;27;20050;-65
2022/03/25 00:06:56;;;;;;;474.55;70.43;;;6.80;99.90;;;;;;5145735;27;20054;-65
2022/03/25 00:09:21;;;;;;;532.13;71.03;;;6.60;99.90;;;;;;5143101;27;20104;-65
2022/03/25 00:11:47;;;;;;;628.28;81.20;;;6.40;99.90;;;;;;5143532;27;20108;-66
2022/03/25 00:14:14;;;;;;;701.95;81.75;;;6.30;99.90;;;;;;5143358;27;20064;-65
2022/03/25 00:16:41;;;;;;;617.58;78.93;;;6.30;99.90;;;;;;5144447;28;20086;-65
2022/03/25 00:19:08;;;;;;;798.60;86.25;;;6.10;99.90;;;;;;5144685;27;20050;-65
2022/03/25 00:21:37;;;;;;;778.40;78.43;;;5.80;99.90;;;;;;5144121;28;20057;-65
2022/03/25 00:24:04;;;;;;;500.17;68.93;;;5.80;99.90;;;;;;5144445;28;20043;-65
2022/03/25 00:26:30;;;;;;;726.65;77.53;;;5.70;99.90;;;;;;5144933;28;20043;-65
2022/03/25 00:28:56;;;;;;;483.23;66.85;;;5.70;99.90;;;;;;5145510;28;20148;-65
2022/03/25 00:31:22;;;;;;;720.58;75.53;;;5.60;99.90;;;;;;5145421;28;20448;-65
2022/03/25 00:33:50;;;;;;;123.68;56.70;;;5.60;99.90;;;;;;5143636;28;20039;-65
2022/03/25 00:36:21;;;;;;;566.03;70.55;;;5.70;99.90;;;;;;5145250;28;20058;-65
2022/03/25 00:38:48;;;;;;;184.82;58.40;;;5.80;99.90;;;;;;5144527;28;20039;-65
2022/03/25 00:41:16;;;;;;;720.75;77.78;;;5.80;99.90;;;;;;5145243;28;20043;-65
2022/03/25 00:43:46;;;;;;;101.15;56.88;;;5.60;99.90;;;;;;5161029;27;20043;-66
2022/03/25 00:46:13;;;;;;;136.23;57.75;;;5.70;99.90;;;;;;5145381;28;20043;-65
2022/03/25 00:48:42;;;;;;;136.70;60.33;;;5.80;99.90;;;;;;5144381;28;20046;-66
2022/03/25 00:51:08;;;;;;;405.33;68.03;;;6.00;99.90;;;;;;5138132;28;20043;-65
2022/03/25 00:53:34;;;;;;;104.18;59.95;;;6.10;99.90;;;;;;5164636;27;20051;-65
2022/03/25 00:56:01;;;;;;;555.63;72.85;;;6.10;99.90;;;;;;5145104;27;20058;-65
2022/03/25 00:58:27;;;;;;;230.82;65.47;;;6.20;99.90;;;;;;5148864;27;20460;-65
2022/03/25 01:00:53;;;;;;;139.20;62.58;;;6.00;99.90;;;;;;5148383;27;20050;-65
2022/03/25 01:03:19;;;;;;;304.55;65.93;;;6.00;99.90;;;;;;5146923;27;20039;-65
2022/03/25 01:05:45;;;;;;;104.32;60.50;;;6.20;99.90;;;;;;5147211;27;20532;-66
2022/03/25 01:08:11;;;;;;;116.03;60.28;;;6.20;99.90;;;;;;5147459;27;20043;-65
2022/03/25 01:10:37;;;;;;;103.57;63.00;;;6.40;99.90;;;;;;5147666;27;20096;-66
2022/03/25 01:13:04;;;;;;;106.68;59.90;;;6.20;99.90;;;;;;5148751;27;20039;-65
2022/03/25 01:15:30;;;;;;;194.15;59.55;;;6.30;99.90;;;;;;5149205;27;20059;-66
2022/03/25 01:17:56;;;;;;;101.57;53.10;;;6.30;99.90;;;;;;5148931;27;20039;-65
2022/03/25 01:20:22;;;;;;;113.25;54.17;;;6.30;99.90;;;;;;5148426;27;20070;-65
2022/03/25 01:22:49;;;;;;;79.40;51.92;;;6.30;99.90;;;;;;5151572;27;20143;-66
2022/03/25 01:25:16;;;;;;;90.10;55.92;;;6.40;99.90;;;;;;5147067;27;20053;-65
2022/03/25 01:27:43;;;;;;;94.28;54.05;;;6.40;99.90;;;;;;5147979;27;20043;-65
2022/03/25 01:30:10;;;;;;;88.78;56.00;;;6.40;99.90;;;;;;5141088;27;20097;-65
2022/03/25 01:32:36;;;;;;;93.80;60.50;;;6.60;99.90;;;;;;5166524;27;20104;-66
2022/03/25 01:35:02;;;;;;;92.45;57.95;;;6.50;99.90;;;;;;5147431;27;20144;-66
2022/03/25 01:37:29;;;;;;;89.35;57.05;;;6.50;99.90;;;;;;5147588;27;20379;-66
2022/03/25 01:39:55;;;;;;;75.68;49.67;;;6.50;99.90;;;;;;5142278;27;20054;-65
2022/03/25 01:42:34;;;;;;;82.72;51.70;;;6.50;99.90;;;;;;5147692;27;20099;-66
2022/03/25 01:45:01;;;;;;;82.68;51.88;;;6.50;99.90;;;;;;5143853;27;20131;-65
2022/03/25 01:47:29;;;;;;;84.25;50.00;;;6.50;99.90;;;;;;5166881;27;20077;-65
2022/03/25 01:49:56;;;;;;;78.63;51.97;;;6.40;99.90;;;;;;5147791;27;20039;-65
2022/03/25 01:52:22;;;;;;;88.03;53.75;;;6.30;99.90;;;;;;5146162;27;20053;-65
2022/03/25 01:54:47;;;;;;;152.27;53.20;;;6.30;99.90;;;;;;5147249;27;20090;-65
2022/03/25 01:57:13;;;;;;;90.20;53.22;;;6.30;99.90;;;;;;5164273;27;20044;-65
2022/03/25 01:59:40;;;;;;;175.73;51.58;;;6.10;99.90;;;;;;5129167;27;20051;-65
2022/03/25 02:02:07;;;;;;;84.63;50.03;;;6.10;99.90;;;;;;5140652;27;20053;-65
2022/03/25 02:04:33;;;;;;;78.53;50.80;;;6.10;99.90;;;;;;5147873;27;20126;-65
2022/03/25 02:06:59;;;;;;;82.53;51.50;;;6.10;99.90;;;;;;5145791;27;20103;-65
2022/03/25 02:09:26;;;;;;;157.68;53.38;;;6.00;99.90;;;;;;5146302;27;20142;-65
2022/03/25 02:11:52;;;;;;;77.15;49.83;;;6.10;99.90;;;;;;5148069;27;20518;-65
2022/03/25 02:14:18;;;;;;;127.97;49.45;;;6.10;99.90;;;;;;5148234;27;20047;-65
2022/03/25 02:16:47;;;;;;;257.42;51.85;;;6.10;99.90;;;;;;5147743;27;20565;-65
2022/03/25 02:19:14;;;;;;;254.60;50.95;;;5.90;99.90;;;;;;5140129;27;20043;-65
2022/03/25 02:21:41;;;;;;;372.67;52.55;;;5.60;99.90;;;;;;5166116;27;20051;-65
2022/03/25 02:24:09;;;;;;;272.77;48.85;;;5.30;99.90;;;;;;5146385;27;20049;-65
2022/03/25 02:26:36;;;;;;;95.05;43.50;;;5.10;99.90;;;;;;5121545;27;20067;-65
2022/03/25 02:29:07;;;;;;;66.25;42.35;;;5.00;99.90;;;;;;5146719;27;20103;-65
2022/03/25 02:31:33;;;;;;;95.55;42.60;;;5.20;99.90;;;;;;5167685;27;20410;-65
2022/03/25 02:34:03;;;;;;;84.90;42.97;;;5.40;99.90;;;;;;5147364;27;20058;-65
2022/03/25 02:36:29;;;;;;;281.92;47.30;;;5.50;99.90;;;;;;5147912;27;20047;-65
2022/03/25 02:38:55;;;;;;;182.55;44.13;;;5.40;99.90;;;;;;5145311;27;20054;-65
2022/03/25 02:41:21;;;;;;;84.85;40.95;;;5.30;99.90;;;;;;5146287;27;20047;-65
2022/03/25 02:43:46;;;;;;;88.25;41.83;;;5.40;99.90;;;;;;5146294;27;20043;-65
2022/03/25 02:46:12;;;;;;;347.15;50.60;;;5.50;99.90;;;;;;5145250;27;20058;-65
2022/03/25 02:48:39;;;;;;;78.68;42.88;;;5.60;99.90;;;;;;5146485;27;20188;-65
2022/03/25 02:51:05;;;;;;;93.95;42.50;;;5.60;99.90;;;;;;5145538;27;20076;-65
2022/03/25 02:53:32;;;;;;;242.68;46.50;;;5.50;99.90;;;;;;5147286;27;20043;-65
2022/03/25 02:55:57;;;;;;;208.50;47.40;;;5.50;99.90;;;;;;5126896;27;20078;-65
2022/03/25 02:58:23;;;;;;;97.75;44.13;;;5.50;99.90;;;;;;5145400;27;20047;-65
2022/03/25 03:00:49;;;;;;;358.13;50.67;;;5.50;99.90;;;;;;5147171;27;20035;-65
2022/03/25 03:03:15;;;;;;;486.95;55.28;;;5.40;99.90;;;;;;5145615;27;20047;-65
2022/03/25 03:05:41;;;;;;;117.85;42.95;;;5.30;99.90;;;;;;5146121;27;20043;-65
2022/03/25 03:08:07;;;;;;;333.42;52.83;;;5.30;99.90;;;;;;5145249;27;20482;-65
2022/03/25 03:10:33;;;;;;;83.95;44.58;;;5.40;99.90;;;;;;5144731;27;20059;-65
2022/03/25 03:12:59;;;;;;;103.38;46.05;;;5.40;99.90;;;;;;5146444;27;20043;-65
2022/03/25 03:15:25;;;;;;;157.38;48.67;;;5.40;99.90;;;;;;5145544;27;20073;-65
2022/03/25 03:17:51;;;;;;;118.90;44.65;;;5.40;99.90;;;;;;5146516;27;20085;-65
2022/03/25 03:20:18;;;;;;;85.88;43.10;;;5.50;99.90;;;;;;5165218;27;20086;-65
2022/03/25 03:22:44;;;;;;;133.95;44.33;;;5.40;99.90;;;;;;5143969;27;20027;-65
2022/03/25 03:25:11;;;;;;;78.68;43.95;;;5.50;99.90;;;;;;5145955;27;20043;-65
2022/03/25 03:27:38;;;;;;;88.97;41.75;;;5.40;99.90;;;;;;5144422;27;20031;-65
2022/03/25 03:30:05;;;;;;;152.15;43.47;;;5.50;99.90;;;;;;5146248;27;20118;-65
2022/03/25 03:32:31;;;;;;;175.23;42.72;;;5.40;99.90;;;;;;5145718;27;20042;-65
2022/03/25 03:34:57;;;;;;;84.25;40.40;;;5.30;99.90;;;;;;5145225;27;20056;-65
2022/03/25 03:37:23;;;;;;;259.25;46.03;;;5.30;99.90;;;;;;5144451;27;20487;-65
2022/03/25 03:39:49;;;;;;;77.88;39.72;;;5.30;99.90;;;;;;5146515;27;20047;-65
2022/03/25 03:42:15;;;;;;;80.93;41.60;;;5.20;99.90;;;;;;5146261;27;20051;-65
2022/03/25 03:44:41;;;;;;;130.93;43.80;;;5.20;99.90;;;;;;5146647;27;20046;-65
2022/03/25 03:47:08;;;;;;;195.77;47.38;;;5.20;99.90;;;;;;5162459;27;20039;-65
2022/03/25 03:49:35;;;;;;;309.02;48.38;;;5.20;99.90;;;;;;5144179;27;20047;-65
2022/03/25 03:52:01;;;;;;;234.98;45.25;;;5.10;99.90;;;;;;5145073;27;20122;-65
2022/03/25 03:54:27;;;;;;;132.73;45.78;;;5.00;99.90;;;;;;5144113;27;20122;-65
2022/03/25 03:56:53;;;;;;;149.30;45.67;;;4.90;99.90;;;;;;5149181;27;20068;-65
2022/03/25 03:59:19;;;;;;;110.30;46.03;;;5.00;99.90;;;;;;5144334;27;20047;-65
2022/03/25 04:01:45;;;;;;;85.22;42.80;;;5.10;99.90;;;;;;5163098;27;20067;-66
2022/03/25 04:04:11;;;;;;;253.98;44.45;;;5.10;99.90;;;;;;5145314;27;20038;-65
2022/03/25 04:06:37;;;;;;;82.60;42.53;;;5.10;99.90;;;;;;5144857;27;20106;-65
2022/03/25 04:09:03;;;;;;;75.20;41.58;;;5.10;99.90;;;;;;5144387;27;20064;-65
2022/03/25 04:11:29;;;;;;;164.93;44.35;;;5.20;99.90;;;;;;5162823;27;20060;-65
2022/03/25 04:13:54;;;;;;;88.75;41.35;;;5.10;99.90;;;;;;5144252;27;20043;-65
2022/03/25 04:16:22;;;;;;;97.28;40.83;;;5.10;99.90;;;;;;5144648;27;20047;-65
2022/03/25 04:18:48;;;;;;;90.03;41.38;;;5.00;99.90;;;;;;5143727;28;20043;-65
2022/03/25 04:21:14;;;;;;;245.73;42.53;;;5.10;99.90;;;;;;5143177;28;20063;-65
2022/03/25 04:23:40;;;;;;;316.80;43.72;;;5.10;99.90;;;;;;5144079;28;20051;-66
2022/03/25 04:26:06;;;;;;;281.42;43.22;;;4.80;99.90;;;;;;5144717;28;20055;-65
2022/03/25 04:28:32;;;;;;;84.20;38.47;;;4.80;99.90;;;;;;5143572;28;20066;-65
2022/03/25 04:30:58;;;;;;;60.78;33.85;;;4.80;99.90;;;;;;5146929;27;20055;-65
2022/03/25 04:33:23;;;;;;;55.83;34.25;;;4.70;99.90;;;;;;5147294;27;20047;-65
2022/03/25 04:35:49;;;;;;;140.02;36.38;;;4.80;99.90;;;;;;5153417;27;20039;-65
2022/03/25 04:38:15;;;;;;;64.85;34.95;;;4.70;99.90;;;;;;5148238;27;20043;-65
2022/03/25 04:40:42;;;;;;;67.43;36.80;;;4.80;99.90;;;;;;5149045;27;20035;-65
2022/03/25 04:43:08;;;;;;;75.18;36.80;;;4.70;99.90;;;;;;5148837;27;20035;-65
2022/03/25 04:45:34;;;;;;;67.15;36.20;;;4.90;99.90;;;;;;5149166;27;20046;-65
2022/03/25 04:48:01;;;;;;;136.30;38.13;;;4.90;99.90;;;;;;5149270;27;20113;-65
2022/03/25 04:50:27;;;;;;;60.28;36.95;;;4.90;99.90;;;;;;5173183;27;20076;-65
2022/03/25 04:52:53;;;;;;;58.08;35.55;;;4.90;99.90;;;;;;5148362;27;20062;-65
2022/03/25 04:55:20;;;;;;;189.77;39.67;;;4.70;99.90;;;;;;5148713;27;20061;-65
2022/03/25 04:57:47;;;;;;;259.88;42.28;;;4.60;99.90;;;;;;5165927;27;20402;-65
2022/03/25 05:00:13;;;;;;;247.40;41.20;;;4.60;99.90;;;;;;5141616;27;20043;-65
2022/03/25 05:02:39;;;;;;;114.57;36.05;;;4.30;99.90;;;;;;5148840;27;20038;-65
2022/03/25 05:05:06;;;;;;;57.40;33.67;;;4.20;99.90;;;;;;5149562;27;20047;-65
2022/03/25 05:07:33;;;;;;;133.82;35.40;;;4.40;99.90;;;;;;5148342;27;20318;-65
2022/03/25 05:10:00;;;;;;;99.10;33.75;;;4.40;99.90;;;;;;5129368;27;20480;-65
2022/03/25 05:12:26;;;;;;;94.03;34.50;;;4.20;99.90;;;;;;5146697;27;20062;-65
2022/03/25 05:14:53;;;;;;;150.18;36.75;;;4.20;99.90;;;;;;5147161;27;20047;-65
2022/03/25 05:17:18;;;;;;;248.20;37.85;;;4.20;99.90;;;;;;5147915;27;20096;-65
2022/03/25 05:19:44;;;;;;;229.48;36.05;;;4.10;99.90;;;;;;5148243;27;20072;-65
2022/03/25 05:22:10;;;;;;;78.13;33.85;;;3.80;99.90;;;;;;5146687;27;20127;-65
2022/03/25 05:24:36;;;;;;;211.90;36.10;;;4.00;99.90;;;;;;5149010;27;20079;-65
2022/03/25 05:27:02;;;;;;;158.35;35.35;;;3.80;99.90;;;;;;5146094;27;20051;-65
2022/03/25 05:29:28;;;;;;;153.27;36.35;;;3.80;99.90;;;;;;5148011;27;20384;-65
2022/03/25 05:31:54;;;;;;;194.02;36.30;;;3.70;99.90;;;;;;5148999;27;20043;-65
2022/03/25 05:34:20;;;;;;;180.30;36.10;;;3.70;99.90;;;;;;5148234;27;20042;-65
2022/03/25 05:36:46;;;;;;;228.63;35.80;;;3.60;99.90;;;;;;5147778;27;20087;-65
2022/03/25 05:39:14;;;;;;;215.73;34.17;;;3.60;99.90;;;;;;5147341;27;20079;-65
2022/03/25 05:41:39;;;;;;;79.95;29.33;;;3.50;99.90;;;;;;5143408;27;20122;-65
2022/03/25 05:44:05;;;;;;;94.18;30.38;;;3.40;99.90;;;;;;5145629;27;20079;-65
2022/03/25 05:46:31;;;;;;;113.68;30.95;;;3.50;99.90;;;;;;5130786;27;20126;-65
2022/03/25 05:48:57;;;;;;;116.95;30.95;;;3.20;99.90;;;;;;5147520;27;20039;-65
2022/03/25 05:51:22;;;;;;;75.85;29.30;;;3.00;99.90;;;;;;5147210;27;20566;-65
2022/03/25 05:53:48;;;;;;;66.65;27.63;;;3.10;99.90;;;;;;5146144;27;20087;-65
2022/03/25 05:56:14;;;;;;;65.15;30.50;;;3.10;99.90;;;;;;5148260;27;20047;-65
2022/03/25 05:58:40;;;;;;;59.33;29.00;;;2.90;99.90;;;;;;5140800;27;20053;-65
2022/03/25 06:01:07;;;;;;;74.15;30.13;;;2.80;99.90;;;;;;5146512;27;20047;-65
2022/03/25 06:03:33;;;;;;;43.17;28.67;;;2.90;99.90;;;;;;5140817;27;20105;-65
2022/03/25 06:06:04;;;;;;;47.97;27.40;;;2.70;99.90;;;;;;5146768;27;20043;-65
2022/03/25 06:08:31;;;;;;;48.90;28.00;;;2.70;99.90;;;;;;5146469;27;20132;-65
2022/03/25 06:10:58;;;;;;;54.40;29.08;;;2.70;99.90;;;;;;5145225;27;20035;-65
2022/03/25 06:13:24;;;;;;;35.47;27.77;;;2.60;99.90;;;;;;5146141;27;20081;-65
2022/03/25 06:15:51;;;;;;;32.83;27.20;;;2.60;99.90;;;;;;5146680;27;20055;-65
2022/03/25 06:18:16;;;;;;;35.38;27.35;;;2.70;99.90;;;;;;5146966;27;20043;-65
2022/03/25 06:20:42;;;;;;;34.00;27.30;;;2.70;99.90;;;;;;5146324;27;20840;-65
2022/03/25 06:23:08;;;;;;;37.03;28.95;;;2.70;99.90;;;;;;5147302;27;20062;-65
2022/03/25 06:25:34;;;;;;;38.63;30.38;;;2.70;99.90;;;;;;5147428;27;20043;-65
2022/03/25 06:28:02;;;;;;;37.08;29.00;;;2.80;99.90;;;;;;5145598;27;20032;-65
2022/03/25 06:30:31;;;;;;;40.25;30.65;;;2.80;99.90;;;;;;5149098;27;20047;-68
2022/03/25 06:32:57;;;;;;;38.30;30.17;;;2.90;99.90;;;;;;5106110;27;20116;-68
2022/03/25 06:35:24;;;;;;;38.92;30.50;;;3.00;99.90;;;;;;5147828;27;20050;-69
2022/03/25 06:37:52;;;;;;;37.58;30.55;;;3.20;99.90;;;;;;5143567;27;20042;-69
2022/03/25 06:40:18;;;;;;;41.05;31.55;;;3.10;99.90;;;;;;5139487;27;20082;-71
2022/03/25 06:42:45;;;;;;;41.50;31.88;;;3.40;99.90;;;;;;5142689;27;20043;-70
2022/03/25 06:45:13;;;;;;;45.20;33.58;;;3.50;99.90;;;;;;5144682;27;20054;-78
2022/03/25 06:47:39;;;;;;;43.42;31.80;;;3.60;99.90;;;;;;5143335;27;20039;-74
2022/03/25 06:50:06;;;;;;;45.97;34.28;;;3.90;99.90;;;;;;5146125;27;20039;-74
2022/03/25 06:52:33;;;;;;;55.17;37.90;;;3.90;99.90;;;;;;5145396;27;20094;-76
2022/03/25 06:54:59;;;;;;;59.13;38.55;;;4.20;99.90;;;;;;5143750;27;20529;-75
2022/03/25 06:57:25;;;;;;;65.68;42.95;;;4.30;99.90;;;;;;5143549;27;20039;-76
2022/03/25 06:59:52;;;;;;;61.55;39.97;;;4.50;99.90;;;;;;5143291;27;20054;-73
2022/03/25 07:02:18;;;;;;;67.35;42.47;;;4.60;99.90;;;;;;5142208;27;20042;-74
2022/03/25 07:04:44;;;;;;;73.00;44.40;;;4.60;99.90;;;;;;5143908;27;20049;-74
2022/03/25 07:07:11;;;;;;;71.72;43.55;;;4.80;99.90;;;;;;5142533;27;20050;-73
2022/03/25 07:09:37;;;;;;;68.55;43.58;;;4.80;99.90;;;;;;5125280;27;20081;-71
2022/03/25 07:12:03;;;;;;;81.40;46.63;;;5.00;99.90;;;;;;5143145;27;20039;-71
2022/03/25 07:14:29;;;;;;;79.57;46.85;;;5.20;99.90;;;;;;5143683;27;20095;-71
2022/03/25 07:16:55;;;;;;;78.30;47.45;;;5.20;99.90;;;;;;5128627;27;20491;-71
2022/03/25 07:19:25;;;;;;;74.70;45.72;;;5.30;99.90;;;;;;5128273;27;20043;-72
2022/03/25 07:21:51;;;;;;;81.93;46.35;;;5.50;99.90;;;;;;5125800;27;20039;-77
2022/03/25 07:24:17;;;;;;;82.05;48.65;;;5.60;99.90;;;;;;5159457;27;20047;-72
2022/03/25 07:26:43;;;;;;;74.95;46.42;;;5.70;99.90;;;;;;5127178;27;20057;-72
2022/03/25 07:29:10;;;;;;;77.07;47.17;;;5.90;99.90;;;;;;5121018;27;20102;-72
2022/03/25 07:31:37;;;;;;;78.53;48.00;;;5.80;99.90;;;;;;5119559;27;20081;-72
2022/03/25 07:34:03;;;;;;;81.00;47.95;;;5.90;99.90;;;;;;5073090;27;20051;-70
2022/03/25 07:36:29;;;;;;;81.43;48.70;;;6.00;99.90;;;;;;5117864;28;20196;-71
2022/03/25 07:38:55;;;;;;;80.13;47.67;;;6.10;99.90;;;;;;5117515;27;20082;-72
2022/03/25 07:41:21;;;;;;;75.68;46.08;;;6.20;99.90;;;;;;5143114;27;20043;-72
2022/03/25 07:43:47;;;;;;;78.05;45.55;;;6.20;99.90;;;;;;5106606;27;20047;-72
2022/03/25 07:46:13;;;;;;;81.40;48.08;;;6.20;99.90;;;;;;5123551;27;20655;-71
2022/03/25 07:48:39;;;;;;;74.68;46.20;;;6.40;99.90;;;;;;5112902;27;20051;-71
2022/03/25 07:51:05;;;;;;;78.20;45.22;;;6.40;99.90;;;;;;5115718;27;20046;-71
2022/03/25 07:53:32;;;;;;;79.47;47.40;;;6.60;99.90;;;;;;5089026;27;20039;-72
2022/03/25 07:55:59;;;;;;;78.47;46.97;;;6.60;99.90;;;;;;5102424;28;20039;-69
2022/03/25 07:58:24;;;;;;;76.93;47.03;;;6.70;99.90;;;;;;5089012;28;20039;-69
2022/03/25 08:00:52;;;;;;;79.00;46.85;;;6.70;99.90;;;;;;5107530;28;20066;-69
2022/03/25 08:03:18;;;;;;;74.13;46.22;;;6.90;99.90;;;;;;5099731;28;20036;-71
2022/03/25 08:05:45;;;;;;;77.00;47.30;;;7.00;99.90;;;;;;5113104;28;20051;-70
2022/03/25 08:08:11;;;;;;;74.93;47.00;;;7.10;99.90;;;;;;5117723;28;20035;-69
2022/03/25 08:10:40;;;;;;;74.90;45.35;;;7.10;99.90;;;;;;5104377;28;20332;-69
2022/03/25 08:13:07;;;;;;;72.77;46.17;;;7.20;99.90;;;;;;5115412;28;20346;-70
2022/03/25 08:15:34;;;;;;;72.35;45.80;;;7.20;99.90;;;;;;5110276;27;20353;-69
2022/03/25 08:18:00;;;;;;;75.35;46.58;;;7.30;99.90;;;;;;5114951;28;20501;-69
2022/03/25 08:20:39;;;;;;;74.82;45.55;;;7.50;99.90;;;;;;5092780;28;20104;-68
2022/03/25 08:28:46;;;;;;;66.03;42.78;;;7.70;99.90;;;;;;5091950;27;20099;-70
2022/03/25 08:31:13;;;;;;;65.07;40.67;;;7.70;99.90;;;;;;5115459;28;20043;-68
2022/03/25 08:33:38;;;;;;;60.25;40.67;;;7.80;99.90;;;;;;5079086;28;20070;-68
2022/03/25 08:36:04;;;;;;;72.05;43.60;;;8.00;99.90;;;;;;5101718;27;20050;-68
2022/03/25 08:38:30;;;;;;;66.28;41.17;;;8.00;99.90;;;;;;5141108;27;20047;-70
2022/03/25 08:40:56;;;;;;;67.28;41.25;;;8.20;99.90;;;;;;5123995;27;20087;-68
2022/03/25 08:43:21;;;;;;;68.22;43.03;;;8.30;99.90;;;;;;5138383;28;20054;-67
2022/03/25 08:45:47;;;;;;;56.67;34.83;;;8.30;99.90;;;;;;5095246;28;20538;-69
2022/03/25 08:48:13;;;;;;;56.08;35.00;;;8.50;99.90;;;;;;5116096;28;20079;-66
2022/03/25 08:50:38;;;;;;;59.83;38.38;;;8.50;99.90;;;;;;5109075;28;20063;-68
2022/03/25 08:53:05;;;;;;;59.03;35.92;;;8.70;99.90;;;;;;5117505;28;20600;-67
2022/03/25 08:55:31;;;;;;;55.00;34.75;;;8.80;99.90;;;;;;5121709;27;20055;-68
2022/03/25 08:57:57;;;;;;;50.65;34.03;;;9.00;99.90;;;;;;5115832;28;20044;-67
2022/03/25 09:00:24;;;;;;;52.05;32.90;;;9.20;99.90;;;;;;5110132;28;20062;-67
2022/03/25 09:02:50;;;;;;;51.72;32.83;;;9.30;99.90;;;;;;5117169;28;20058;-67
2022/03/25 09:05:16;;;;;;;53.83;36.47;;;9.40;99.90;;;;;;5110458;28;20055;-68
2022/03/25 09:07:42;;;;;;;53.22;33.88;;;9.60;99.90;;;;;;5115093;28;20293;-68
2022/03/25 09:10:10;;;;;;;55.75;33.97;;;9.70;99.90;;;;;;5108056;28;20055;-68
2022/03/25 09:12:37;;;;;;;53.33;32.75;;;9.90;99.90;;;;;;5117448;28;20043;-68
2022/03/25 09:15:05;;;;;;;54.42;34.17;;;9.90;99.90;;;;;;5109385;28;20040;-67
2022/03/25 09:17:31;;;;;;;53.13;33.25;;;10.00;99.90;;;;;;5108662;28;20106;-67
2022/03/25 09:19:57;;;;;;;53.35;33.60;;;10.20;99.90;;;;;;5111649;27;20043;-67
2022/03/25 09:22:23;;;;;;;50.35;32.20;;;10.30;99.90;;;;;;5120503;28;20051;-67
2022/03/25 09:24:49;;;;;;;48.10;31.40;;;10.40;99.90;;;;;;5114293;27;20393;-71
2022/03/25 09:27:15;;;;;;;51.50;33.22;;;10.50;99.90;;;;;;5119630;28;20047;-71
2022/03/25 09:29:41;;;;;;;48.50;30.75;;;10.70;99.90;;;;;;5114659;27;20054;-70
2022/03/25 09:32:07;;;;;;;48.92;31.52;;;10.70;99.90;;;;;;5111703;28;20047;-72
2022/03/25 09:37:17;;;;;;;57.05;34.25;;;10.90;99.90;;;;;;5118005;28;20097;-70
2022/03/25 09:39:43;;;;;;;52.25;32.00;;;11.10;99.90;;;;;;5088356;28;20051;-70
2022/03/25 09:42:10;;;;;;;62.90;31.35;;;11.30;99.90;;;;;;5129029;27;20039;-70
2022/03/25 09:44:39;;;;;;;45.10;28.23;;;11.20;99.90;;;;;;5114487;27;20127;-70
2022/03/25 09:47:05;;;;;;;54.55;30.17;;;11.30;99.90;;;;;;5102092;28;20047;-83
2022/03/25 09:49:31;;;;;;;52.00;30.10;;;11.40;99.90;;;;;;5111153;27;20085;-70
2022/03/25 09:51:58;;;;;;;46.05;29.25;;;11.50;99.90;;;;;;5113371;28;20036;-70
2022/03/25 09:54:26;;;;;;;49.03;30.48;;;11.60;99.90;;;;;;5111259;27;20043;-78
2022/03/25 09:56:52;;;;;;;50.60;28.98;;;11.60;99.90;;;;;;5092326;27;20051;-69
2022/03/25 09:59:18;;;;;;;52.83;29.75;;;11.70;99.90;;;;;;5113378;27;20518;-71
2022/03/25 10:01:44;;;;;;;45.08;28.83;;;11.70;99.90;;;;;;5131127;27;20036;-70
2022/03/25 10:04:39;;;;;;;47.92;27.77;;;11.80;99.90;;;;;;5124782;27;20165;-69
2022/03/25 10:07:23;;;;;;;44.33;28.02;;;11.90;99.90;;;;;;5125285;27;20043;-69
2022/03/25 10:10:05;;;;;;;41.92;27.38;;;11.90;99.90;;;;;;5110838;27;20570;-69
2022/03/25 10:12:30;;;;;;;42.72;28.15;;;12.00;99.90;;;;;;5116497;28;20454;-68
2022/03/25 10:15:30;;;;;;;41.35;26.98;;;12.10;99.90;;;;;;5109012;27;20116;-70
2022/03/25 10:17:56;;;;;;;41.13;24.97;;;12.30;99.90;;;;;;5075183;28;20048;-70
2022/03/25 10:20:32;;;;;;;43.58;25.70;;;12.20;99.90;;;;;;5065419;28;20091;-69
2022/03/25 10:23:03;;;;;;;44.92;26.85;;;12.40;99.90;;;;;;5041053;28;20079;-70
2022/03/25 10:25:34;;;;;;;42.17;26.27;;;12.50;99.90;;;;;;5043299;28;20120;-70
2022/03/25 10:28:00;;;;;;;36.45;23.85;;;12.70;99.90;;;;;;5077765;28;20052;-70
2022/03/25 10:30:40;;;;;;;38.72;23.15;;;12.80;99.90;;;;;;5034100;28;20130;-70
2022/03/25 10:33:11;;;;;;;41.50;25.23;;;12.80;99.90;;;;;;5047672;28;20061;-69
2022/03/25 10:36:25;;;;;;;40.00;24.00;;;12.90;99.90;;;;;;5067018;28;20070;-69
2022/03/25 10:39:01;;;;;;;38.05;23.45;;;13.00;99.90;;;;;;5076099;28;20052;-70
2022/03/25 10:41:41;;;;;;;45.78;25.30;;;13.20;99.90;;;;;;5073330;28;20059;-69
2022/03/25 10:44:09;;;;;;;36.28;22.48;;;13.30;99.90;;;;;;5052118;28;20052;-70
2022/03/25 10:46:40;;;;;;;43.78;20.77;;;13.40;99.90;;;;;;5063151;28;20059;-68
2022/03/25 10:49:10;;;;;;;70.15;23.42;;;13.50;99.90;;;;;;5066443;28;20569;-68
2022/03/25 10:51:44;;;;;;;81.78;26.00;;;13.60;99.90;;;;;;5066947;28;20044;-70
2022/03/25 10:54:14;;;;;;;40.13;22.17;;;13.70;99.90;;;;;;5094716;27;20059;-66
2022/03/25 10:56:52;;;;;;;41.10;22.45;;;13.70;99.90;;;;;;5102581;28;20055;-66
2022/03/25 10:59:21;;;;;;;40.58;23.15;;;13.80;99.90;;;;;;5104513;27;20465;-66
2022/03/25 11:01:50;;;;;;;32.58;22.02;;;13.90;99.90;;;;;;5117503;27;20133;-69
2022/03/25 11:04:16;;;;;;;46.17;22.83;;;13.90;99.90;;;;;;5108143;27;20059;-69
2022/03/25 11:06:44;;;;;;;34.22;21.02;;;14.00;99.90;;;;;;5103313;28;20050;-69
2022/03/25 11:09:10;;;;;;;34.95;21.00;;;14.10;99.90;;;;;;5104938;27;20066;-70
2022/03/25 11:11:37;;;;;;;37.53;22.42;;;14.10;99.90;;;;;;5112710;28;20051;-69
2022/03/25 11:14:04;;;;;;;36.45;23.42;;;14.20;99.90;;;;;;5098206;28;20403;-69
2022/03/25 11:16:33;;;;;;;37.95;24.02;;;14.40;99.90;;;;;;5107347;27;20059;-67
2022/03/25 11:18:59;;;;;;;36.57;22.30;;;14.40;99.90;;;;;;5115452;28;20040;-68
2022/03/25 11:21:26;;;;;;;37.33;22.00;;;14.50;99.90;;;;;;5125148;27;20035;-69
2022/03/25 11:23:54;;;;;;;36.78;23.13;;;14.50;99.90;;;;;;5116799;28;20047;-69
2022/03/25 11:26:24;;;;;;;34.75;22.73;;;14.50;99.90;;;;;;5109177;27;20104;-69
2022/03/25 11:28:54;;;;;;;38.08;22.75;;;14.60;99.90;;;;;;5112413;28;20035;-69
2022/03/25 11:31:20;;;;;;;30.50;20.35;;;14.70;99.90;;;;;;5143379;27;20051;-70
2022/03/25 11:34:06;;;;;;;37.85;21.35;;;14.70;99.90;;;;;;5127839;27;20046;-70
2022/03/25 11:36:31;;;;;;;36.35;19.67;;;14.90;99.90;;;;;;5144065;27;20599;-70
2022/03/25 11:39:24;;;;;;;35.50;21.38;;;15.00;99.90;;;;;;5137855;27;20070;-70
2022/03/25 11:41:53;;;;;;;36.88;21.88;;;15.10;99.90;;;;;;5137529;27;20058;-70
2022/03/25 11:44:23;;;;;;;34.90;22.48;;;15.30;99.90;;;;;;5155831;27;20043;-70
2022/03/25 11:47:01;;;;;;;34.17;20.27;;;15.50;99.90;;;;;;5123282;27;20042;-70
2022/03/25 11:49:43;;;;;;;42.78;24.60;;;15.50;99.90;;;;;;5135224;27;20093;-69
2022/03/25 11:52:29;;;;;;;36.80;23.90;;;15.60;99.90;;;;;;5131434;27;20542;-69
2022/03/25 11:55:00;;;;;;;49.28;25.50;;;15.60;99.90;;;;;;5127926;27;20062;-72
2022/03/25 11:57:31;;;;;;;39.75;22.83;;;15.60;99.90;;;;;;5080469;28;20067;-72
2022/03/25 11:59:59;;;;;;;31.75;21.13;;;15.70;99.90;;;;;;5104499;28;20590;-72
2022/03/25 12:02:32;;;;;;;40.60;23.85;;;15.90;99.90;;;;;;5112693;27;20051;-71
2022/03/25 12:05:00;;;;;;;42.08;24.73;;;16.00;99.90;;;;;;5102440;27;20061;-71
2022/03/25 12:07:26;;;;;;;44.08;26.90;;;16.00;99.90;;;;;;5101368;28;20043;-71
2022/03/25 12:09:52;;;;;;;42.92;26.05;;;16.10;99.90;;;;;;5107770;27;20035;-71
2022/03/25 12:12:18;;;;;;;39.17;25.25;;;16.10;99.90;;;;;;5112256;28;20097;-71
2022/03/25 12:15:10;;;;;;;43.72;25.25;;;16.20;99.90;;;;;;5107792;27;20068;-72
2022/03/25 12:17:38;;;;;;;47.60;27.08;;;16.40;99.90;;;;;;5133121;27;20281;-71
2022/03/25 12:20:05;;;;;;;37.97;24.92;;;16.50;99.90;;;;;;5123727;27;20115;-71
2022/03/25 12:22:33;;;;;;;40.85;25.42;;;16.60;99.90;;;;;;5127606;27;20042;-70
2022/03/25 12:25:13;;;;;;;39.63;24.33;;;16.90;99.50;;;;;;5123730;27;20543;-71
2022/03/25 12:27:40;;;;;;;41.10;24.45;;;17.00;98.00;;;;;;5114024;28;20043;-71
2022/03/25 12:30:07;;;;;;;38.15;25.48;;;17.00;97.90;;;;;;5106327;28;20051;-70
2022/03/25 12:32:35;;;;;;;41.13;25.27;;;17.10;97.10;;;;;;5104756;27;20089;-71
2022/03/25 12:35:19;;;;;;;35.53;19.55;;;17.10;98.00;;;;;;5109046;28;21551;-71
2022/03/25 12:37:48;;;;;;;26.42;18.13;;;17.30;96.00;;;;;;5113014;28;20048;-71
2022/03/25 12:40:25;;;;;;;34.03;20.23;;;17.30;95.40;;;;;;5109576;27;20450;-71
2022/03/25 12:42:59;;;;;;;30.23;16.38;;;17.40;94.40;;;;;;5113995;28;20055;-71